sensor_id;sensor_type;location;lat;lon;timestamp;temperature;humidity
13589;DHT22;6865;52.552;13.434;2022-11-30T00:01:08;4.90;99.90
13589;DHT22;6865;52.552;13.434;2022-11-30T00:03:35;4.90;99.90
13589;DHT22;6865;52.552;13.434;2022-11-30T00:06:07;4.90;99.90
13589;DHT22;6865;52.552;13.434;2022-11-30T00:08:34;4.90;99.90
13589;DHT22;6865;52.552;13.434;2022-11-30T00:11:07;4.90;99.90
13589;DHT22;6865;52.552;13.434;2022-11-30T00:13:33;4.90;99.90
13589;DHT22;6865;52.552;13.434;2022-11-30T00:16:00;4.90;99.90
13589;DHT22;6865;52.552;13.434;2022-11-30T00:18:27;4.90;99.90
13589;DHT22;6865;52.552;13.434;2022-11-30T00:20:53;4.90;99.90
13589;DHT22;6865;52.552;13.434;2022-11-30T00:23:20;4.90;99.90
13589;DHT22;6865;52.552;13.434;2022-11-30T00:25:47;4.90;99.90
13589;DHT22;6865;52.552;13.434;2022-11-30T00:28:13;4.90;99.90
13589;DHT22;6865;52.552;13.434;2022-11-30T00:30:40;4.90;99.90
13589;DHT22;6865;52.552;13.434;2022-11-30T00:33:07;4.90;99.90
13589;DHT22;6865;52.552;13.434;2022-11-30T00:35:33;4.90;99.90
13589;DHT22;6865;52.552;13.434;2022-11-30T00:38:01;4.90;99.90
13589;DHT22;6865;52.552;13.434;2022-11-30T00:40:28;4.80;99.90
13589;DHT22;6865;52.552;13.434;2022-11-30T00:42:55;4.80;99.90
13589;DHT22;6865;52.552;13.434;2022-11-30T00:45:21;4.80;99.90
13589;DHT22;6865;52.552;13.434;2022-11-30T00:47:48;5.10;99.90
13589;DHT22;6865;52.552;13.434;2022-11-30T00:50:15;4.80;99.90
13589;DHT22;6865;52.552;13.434;2022-11-30T00:52:41;4.70;99.90
13589;DHT22;6865;52.552;13.434;2022-11-30T00:55:08;4.80;99.90
13589;DHT22;6865;52.552;13.434;2022-11-30T00:57:34;4.70;99.90
13589;DHT22;6865;52.552;13.434;2022-11-30T01:00:04;4.60;99.90
13589;DHT22;6865;52.552;13.434;2022-11-30T01:02:30;4.60;99.90
13589;DHT22;6865;52.552;13.434;2022-11-30T01:04:57;4.60;99.90
13589;DHT22;6865;52.552;13.434;2022-11-30T01:07:23;4.60;99.90
13589;DHT22;6865;52.552;13.434;2022-11-30T01:09:50;4.60;99.90
13589;DHT22;6865;52.552;13.434;2022-11-30T01:12:17;4.60;99.90
13589;DHT22;6865;52.552;13.434;2022-11-30T01:14:43;4.60;99.90
13589;DHT22;6865;52.552;13.434;2022-11-30T01:17:10;4.70;99.90
13589;DHT22;6865;52.552;13.434;2022-11-30T01:19:37;4.60;99.90
13589;DHT22;6865;52.552;13.434;2022-11-30T01:22:03;4.60;99.90
13589;DHT22;6865;52.552;13.434;2022-11-30T01:24:30;4.60;99.90
13589;DHT22;6865;52.552;13.434;2022-11-30T01:26:57;4.60;99.90
13589;DHT22;6865;52.552;13.434;2022-11-30T01:29:23;4.60;99.90
13589;DHT22;6865;52.552;13.434;2022-11-30T01:31:50;4.60;99.90
13589;DHT22;6865;52.552;13.434;2022-11-30T01:34:16;4.60;99.90
13589;DHT22;6865;52.552;13.434;2022-11-30T01:36:43;4.60;99.90
13589;DHT22;6865;52.552;13.434;2022-11-30T01:39:10;4.60;99.90
13589;DHT22;6865;52.552;13.434;2022-11-30T01:41:36;4.70;99.90
13589;DHT22;6865;52.552;13.434;2022-11-30T01:46:36;4.70;99.90
13589;DHT22;6865;52.552;13.434;2022-11-30T01:49:15;4.70;99.90
13589;DHT22;6865;52.552;13.434;2022-11-30T01:51:45;4.70;99.90
13589;DHT22;6865;52.552;13.434;2022-11-30T01:54:14;4.70;99.90
13589;DHT22;6865;52.552;13.434;2022-11-30T01:56:52;4.70;99.90
13589;DHT22;6865;52.552;13.434;2022-11-30T01:59:22;4.70;99.90
13589;DHT22;6865;52.552;13.434;2022-11-30T02:01:50;4.70;99.90
13589;DHT22;6865;52.552;13.434;2022-11-30T02:04:23;4.70;99.90
13589;DHT22;6865;52.552;13.434;2022-11-30T02:06:51;4.70;99.90
13589;DHT22;6865;52.552;13.434;2022-11-30T02:09:19;4.70;99.90
13589;DHT22;6865;52.552;13.434;2022-11-30T02:11:47;4.70;99.90
13589;DHT22;6865;52.552;13.434;2022-11-30T02:14:33;4.70;99.90
13589;DHT22;6865;52.552;13.434;2022-11-30T02:17:44;4.70;99.90
13589;DHT22;6865;52.552;13.434;2022-11-30T02:20:34;4.70;99.90
13589;DHT22;6865;52.552;13.434;2022-11-30T02:23:33;4.70;99.90
13589;DHT22;6865;52.552;13.434;2022-11-30T02:26:38;4.70;99.90
13589;DHT22;6865;52.552;13.434;2022-11-30T02:29:20;4.70;99.90
13589;DHT22;6865;52.552;13.434;2022-11-30T02:32:09;4.70;99.90
13589;DHT22;6865;52.552;13.434;2022-11-30T02:34:39;4.70;99.90
13589;DHT22;6865;52.552;13.434;2022-11-30T02:37:08;4.70;99.90
13589;DHT22;6865;52.552;13.434;2022-11-30T02:39:36;4.60;99.90
13589;DHT22;6865;52.552;13.434;2022-11-30T02:42:08;4.20;99.90
13589;DHT22;6865;52.552;13.434;2022-11-30T02:44:36;4.70;99.90
13589;DHT22;6865;52.552;13.434;2022-11-30T02:47:08;4.70;99.90
13589;DHT22;6865;52.552;13.434;2022-11-30T02:49:55;4.60;99.90
13589;DHT22;6865;52.552;13.434;2022-11-30T02:52:26;4.70;99.90
13589;DHT22;6865;52.552;13.434;2022-11-30T02:55:04;4.70;99.90
13589;DHT22;6865;52.552;13.434;2022-11-30T02:57:32;4.70;99.90
13589;DHT22;6865;52.552;13.434;2022-11-30T03:00:02;4.70;99.90
13589;DHT22;6865;52.552;13.434;2022-11-30T03:02:29;4.70;99.90
13589;DHT22;6865;52.552;13.434;2022-11-30T03:04:56;4.70;99.90
13589;DHT22;6865;52.552;13.434;2022-11-30T03:07:22;4.70;99.90
13589;DHT22;6865;52.552;13.434;2022-11-30T03:09:49;4.70;99.90
13589;DHT22;6865;52.552;13.434;2022-11-30T03:12:16;4.70;99.90
13589;DHT22;6865;52.552;13.434;2022-11-30T03:14:42;4.60;99.90
13589;DHT22;6865;52.552;13.434;2022-11-30T03:17:09;4.60;99.90
13589;DHT22;6865;52.552;13.434;2022-11-30T03:19:36;4.60;99.90
13589;DHT22;6865;52.552;13.434;2022-11-30T03:22:02;4.60;99.90
13589;DHT22;6865;52.552;13.434;2022-11-30T03:24:29;4.60;99.90
13589;DHT22;6865;52.552;13.434;2022-11-30T03:26:55;4.50;99.90
13589;DHT22;6865;52.552;13.434;2022-11-30T03:29:22;4.50;99.90
13589;DHT22;6865;52.552;13.434;2022-11-30T03:31:49;4.50;99.90
13589;DHT22;6865;52.552;13.434;2022-11-30T03:34:15;4.50;99.90
13589;DHT22;6865;52.552;13.434;2022-11-30T03:36:42;4.50;99.90
13589;DHT22;6865;52.552;13.434;2022-11-30T03:39:08;4.50;99.90
13589;DHT22;6865;52.552;13.434;2022-11-30T03:41:35;4.50;99.90
13589;DHT22;6865;52.552;13.434;2022-11-30T03:44:02;4.50;99.90
13589;DHT22;6865;52.552;13.434;2022-11-30T03:46:28;4.50;99.90
13589;DHT22;6865;52.552;13.434;2022-11-30T03:48:55;4.40;99.90
13589;DHT22;6865;52.552;13.434;2022-11-30T03:51:22;4.40;99.90
13589;DHT22;6865;52.552;13.434;2022-11-30T03:53:48;4.40;99.90
13589;DHT22;6865;52.552;13.434;2022-11-30T03:56:15;4.40;99.90
13589;DHT22;6865;52.552;13.434;2022-11-30T03:58:42;4.50;99.90
13589;DHT22;6865;52.552;13.434;2022-11-30T04:01:15;4.40;99.90
13589;DHT22;6865;52.552;13.434;2022-11-30T04:03:42;4.40;99.90
13589;DHT22;6865;52.552;13.434;2022-11-30T04:06:10;4.30;99.90
13589;DHT22;6865;52.552;13.434;2022-11-30T04:08:38;4.30;99.90
13589;DHT22;6865;52.552;13.434;2022-11-30T04:11:06;4.30;99.90
13589;DHT22;6865;52.552;13.434;2022-11-30T04:13:34;4.30;99.90
13589;DHT22;6865;52.552;13.434;2022-11-30T04:16:02;4.30;99.90
13589;DHT22;6865;52.552;13.434;2022-11-30T04:18:30;4.30;99.90
13589;DHT22;6865;52.552;13.434;2022-11-30T04:20:58;4.30;99.90
13589;DHT22;6865;52.552;13.434;2022-11-30T04:23:29;4.40;99.90
13589;DHT22;6865;52.552;13.434;2022-11-30T04:25:56;4.30;99.90
13589;DHT22;6865;52.552;13.434;2022-11-30T04:28:23;4.30;99.90
13589;DHT22;6865;52.552;13.434;2022-11-30T04:30:51;4.30;99.90
13589;DHT22;6865;52.552;13.434;2022-11-30T04:33:19;4.30;99.90
13589;DHT22;6865;52.552;13.434;2022-11-30T04:35:47;4.30;99.90
13589;DHT22;6865;52.552;13.434;2022-11-30T04:38:15;4.30;99.90
13589;DHT22;6865;52.552;13.434;2022-11-30T04:40:42;4.30;99.90
13589;DHT22;6865;52.552;13.434;2022-11-30T04:43:10;4.20;99.90
13589;DHT22;6865;52.552;13.434;2022-11-30T04:45:37;4.20;99.90
13589;DHT22;6865;52.552;13.434;2022-11-30T04:48:04;4.20;99.90
13589;DHT22;6865;52.552;13.434;2022-11-30T04:50:32;4.20;99.90
13589;DHT22;6865;52.552;13.434;2022-11-30T04:52:58;4.30;99.90
13589;DHT22;6865;52.552;13.434;2022-11-30T04:55:25;4.20;99.90
13589;DHT22;6865;52.552;13.434;2022-11-30T04:57:52;4.30;99.90
13589;DHT22;6865;52.552;13.434;2022-11-30T05:00:19;4.10;99.90
13589;DHT22;6865;52.552;13.434;2022-11-30T05:02:46;4.30;99.90
13589;DHT22;6865;52.552;13.434;2022-11-30T05:05:18;4.30;99.90
13589;DHT22;6865;52.552;13.434;2022-11-30T05:07:48;4.30;99.90
13589;DHT22;6865;52.552;13.434;2022-11-30T05:10:16;4.30;99.90
13589;DHT22;6865;52.552;13.434;2022-11-30T05:12:42;4.30;99.90
13589;DHT22;6865;52.552;13.434;2022-11-30T05:15:09;4.30;99.90
13589;DHT22;6865;52.552;13.434;2022-11-30T05:17:36;4.30;99.90
13589;DHT22;6865;52.552;13.434;2022-11-30T05:20:03;4.30;99.90
13589;DHT22;6865;52.552;13.434;2022-11-30T05:22:29;4.30;99.90
13589;DHT22;6865;52.552;13.434;2022-11-30T05:24:56;4.30;99.90
13589;DHT22;6865;52.552;13.434;2022-11-30T05:27:22;4.30;99.90
13589;DHT22;6865;52.552;13.434;2022-11-30T05:29:49;4.20;99.90
13589;DHT22;6865;52.552;13.434;2022-11-30T05:32:16;4.30;99.90
13589;DHT22;6865;52.552;13.434;2022-11-30T05:34:42;4.30;99.90
13589;DHT22;6865;52.552;13.434;2022-11-30T05:37:17;4.30;99.90
13589;DHT22;6865;52.552;13.434;2022-11-30T05:39:44;4.30;99.90
13589;DHT22;6865;52.552;13.434;2022-11-30T05:42:10;4.30;99.90
13589;DHT22;6865;52.552;13.434;2022-11-30T05:44:37;4.30;99.90
13589;DHT22;6865;52.552;13.434;2022-11-30T05:47:03;4.30;99.90
13589;DHT22;6865;52.552;13.434;2022-11-30T05:49:30;4.40;99.90
13589;DHT22;6865;52.552;13.434;2022-11-30T05:51:57;4.40;99.90
13589;DHT22;6865;52.552;13.434;2022-11-30T05:54:23;4.40;99.90
13589;DHT22;6865;52.552;13.434;2022-11-30T05:56:50;4.50;99.90
13589;DHT22;6865;52.552;13.434;2022-11-30T05:59:21;4.40;99.90
13589;DHT22;6865;52.552;13.434;2022-11-30T06:01:47;4.40;99.90
13589;DHT22;6865;52.552;13.434;2022-11-30T06:04:14;4.50;99.90
13589;DHT22;6865;52.552;13.434;2022-11-30T06:06:41;4.50;99.90
13589;DHT22;6865;52.552;13.434;2022-11-30T06:09:08;4.50;99.90
13589;DHT22;6865;52.552;13.434;2022-11-30T06:11:34;4.50;99.90
13589;DHT22;6865;52.552;13.434;2022-11-30T06:14:01;4.50;99.90
13589;DHT22;6865;52.552;13.434;2022-11-30T06:16:27;4.50;99.90
13589;DHT22;6865;52.552;13.434;2022-11-30T06:18:54;4.40;99.90
13589;DHT22;6865;52.552;13.434;2022-11-30T06:21:21;4.50;99.90
13589;DHT22;6865;52.552;13.434;2022-11-30T06:23:51;4.50;99.90
13589;DHT22;6865;52.552;13.434;2022-11-30T06:26:18;4.50;99.90
13589;DHT22;6865;52.552;13.434;2022-11-30T06:28:44;4.50;99.90
13589;DHT22;6865;52.552;13.434;2022-11-30T06:31:14;4.50;99.90
13589;DHT22;6865;52.552;13.434;2022-11-30T06:33:41;4.60;99.90
13589;DHT22;6865;52.552;13.434;2022-11-30T06:36:08;4.60;99.90
13589;DHT22;6865;52.552;13.434;2022-11-30T06:38:35;4.60;99.90
13589;DHT22;6865;52.552;13.434;2022-11-30T06:41:06;4.60;99.90
13589;DHT22;6865;52.552;13.434;2022-11-30T06:43:37;4.60;99.90
13589;DHT22;6865;52.552;13.434;2022-11-30T06:46:05;4.60;99.90
13589;DHT22;6865;52.552;13.434;2022-11-30T06:48:33;4.60;99.90
13589;DHT22;6865;52.552;13.434;2022-11-30T06:51:00;4.40;99.90
13589;DHT22;6865;52.552;13.434;2022-11-30T06:53:27;4.70;99.90
13589;DHT22;6865;52.552;13.434;2022-11-30T06:55:53;4.60;99.90
13589;DHT22;6865;52.552;13.434;2022-11-30T06:58:20;4.60;99.90
13589;DHT22;6865;52.552;13.434;2022-11-30T07:00:47;4.60;99.90
13589;DHT22;6865;52.552;13.434;2022-11-30T07:03:14;4.60;99.90
13589;DHT22;6865;52.552;13.434;2022-11-30T07:05:43;4.60;99.90
13589;DHT22;6865;52.552;13.434;2022-11-30T07:08:14;4.60;99.90
13589;DHT22;6865;52.552;13.434;2022-11-30T07:10:43;4.60;99.90
13589;DHT22;6865;52.552;13.434;2022-11-30T07:13:11;4.60;99.90
13589;DHT22;6865;52.552;13.434;2022-11-30T07:15:38;4.50;99.90
13589;DHT22;6865;52.552;13.434;2022-11-30T07:18:06;4.50;99.90
13589;DHT22;6865;52.552;13.434;2022-11-30T07:20:32;4.50;99.90
13589;DHT22;6865;52.552;13.434;2022-11-30T07:22:59;4.50;99.90
13589;DHT22;6865;52.552;13.434;2022-11-30T07:25:46;4.50;99.90
13589;DHT22;6865;52.552;13.434;2022-11-30T07:28:33;4.50;99.90
13589;DHT22;6865;52.552;13.434;2022-11-30T07:31:00;4.50;99.90
13589;DHT22;6865;52.552;13.434;2022-11-30T07:33:26;4.50;99.90
13589;DHT22;6865;52.552;13.434;2022-11-30T07:35:53;4.70;99.90
13589;DHT22;6865;52.552;13.434;2022-11-30T07:38:20;4.40;99.90
13589;DHT22;6865;52.552;13.434;2022-11-30T07:40:46;4.40;99.90
13589;DHT22;6865;52.552;13.434;2022-11-30T07:43:13;4.80;99.90
13589;DHT22;6865;52.552;13.434;2022-11-30T07:45:39;4.50;99.90
13589;DHT22;6865;52.552;13.434;2022-11-30T07:48:06;4.50;99.90
13589;DHT22;6865;52.552;13.434;2022-11-30T07:50:34;4.60;99.90
13589;DHT22;6865;52.552;13.434;2022-11-30T07:53:01;4.60;99.90
13589;DHT22;6865;52.552;13.434;2022-11-30T07:55:27;4.60;99.90
13589;DHT22;6865;52.552;13.434;2022-11-30T07:57:54;4.60;99.90
13589;DHT22;6865;52.552;13.434;2022-11-30T08:00:21;4.70;99.90
13589;DHT22;6865;52.552;13.434;2022-11-30T08:02:49;4.70;99.90
13589;DHT22;6865;52.552;13.434;2022-11-30T08:05:16;4.70;99.90
13589;DHT22;6865;52.552;13.434;2022-11-30T08:07:42;4.50;99.90
13589;DHT22;6865;52.552;13.434;2022-11-30T08:10:11;4.90;99.90
13589;DHT22;6865;52.552;13.434;2022-11-30T08:12:37;4.80;99.90
13589;DHT22;6865;52.552;13.434;2022-11-30T08:15:05;4.80;99.90
13589;DHT22;6865;52.552;13.434;2022-11-30T08:17:52;4.80;99.90
13589;DHT22;6865;52.552;13.434;2022-11-30T08:20:20;4.80;99.90
13589;DHT22;6865;52.552;13.434;2022-11-30T08:22:47;4.80;99.90
13589;DHT22;6865;52.552;13.434;2022-11-30T08:25:15;4.80;99.90
13589;DHT22;6865;52.552;13.434;2022-11-30T08:27:41;4.70;99.90
13589;DHT22;6865;52.552;13.434;2022-11-30T08:30:08;4.40;99.90
13589;DHT22;6865;52.552;13.434;2022-11-30T08:32:35;4.80;99.90
13589;DHT22;6865;52.552;13.434;2022-11-30T08:35:01;4.80;99.90
13589;DHT22;6865;52.552;13.434;2022-11-30T08:37:28;4.90;99.90
13589;DHT22;6865;52.552;13.434;2022-11-30T08:39:54;4.90;99.90
13589;DHT22;6865;52.552;13.434;2022-11-30T08:42:21;5.00;99.90
13589;DHT22;6865;52.552;13.434;2022-11-30T08:44:48;4.80;99.90
13589;DHT22;6865;52.552;13.434;2022-11-30T08:47:14;5.00;99.90
13589;DHT22;6865;52.552;13.434;2022-11-30T08:49:41;5.00;99.90
13589;DHT22;6865;52.552;13.434;2022-11-30T08:52:07;5.00;99.90
13589;DHT22;6865;52.552;13.434;2022-11-30T08:54:43;5.10;99.90
13589;DHT22;6865;52.552;13.434;2022-11-30T08:57:16;5.20;99.90
13589;DHT22;6865;52.552;13.434;2022-11-30T08:59:43;5.20;99.90
13589;DHT22;6865;52.552;13.434;2022-11-30T09:02:11;5.20;99.90
13589;DHT22;6865;52.552;13.434;2022-11-30T09:04:39;5.30;99.90
13589;DHT22;6865;52.552;13.434;2022-11-30T09:07:06;5.20;99.90
13589;DHT22;6865;52.552;13.434;2022-11-30T09:09:32;5.20;99.90
13589;DHT22;6865;52.552;13.434;2022-11-30T09:11:59;5.20;99.90
13589;DHT22;6865;52.552;13.434;2022-11-30T09:14:26;5.20;99.90
13589;DHT22;6865;52.552;13.434;2022-11-30T09:16:53;5.20;99.90
13589;DHT22;6865;52.552;13.434;2022-11-30T09:19:20;5.20;99.90
13589;DHT22;6865;52.552;13.434;2022-11-30T09:21:47;5.20;99.90
13589;DHT22;6865;52.552;13.434;2022-11-30T09:24:18;5.20;99.90
13589;DHT22;6865;52.552;13.434;2022-11-30T09:26:45;5.20;99.90
13589;DHT22;6865;52.552;13.434;2022-11-30T09:29:12;5.20;99.90
13589;DHT22;6865;52.552;13.434;2022-11-30T09:31:38;5.20;99.90
13589;DHT22;6865;52.552;13.434;2022-11-30T09:34:05;5.20;99.90
13589;DHT22;6865;52.552;13.434;2022-11-30T09:36:31;5.20;99.90
13589;DHT22;6865;52.552;13.434;2022-11-30T09:38:59;5.20;99.90
13589;DHT22;6865;52.552;13.434;2022-11-30T09:42:07;5.30;99.90
13589;DHT22;6865;52.552;13.434;2022-11-30T09:45:07;5.30;99.90
13589;DHT22;6865;52.552;13.434;2022-11-30T09:48:16;5.30;99.90
13589;DHT22;6865;52.552;13.434;2022-11-30T09:50:45;5.20;99.90
13589;DHT22;6865;52.552;13.434;2022-11-30T09:53:27;5.20;99.90
13589;DHT22;6865;52.552;13.434;2022-11-30T09:55:57;5.20;99.90
13589;DHT22;6865;52.552;13.434;2022-11-30T09:58:46;5.30;99.90
13589;DHT22;6865;52.552;13.434;2022-11-30T10:01:17;5.30;99.90
13589;DHT22;6865;52.552;13.434;2022-11-30T10:03:45;5.20;99.90
13589;DHT22;6865;52.552;13.434;2022-11-30T10:06:21;5.40;99.90
13589;DHT22;6865;52.552;13.434;2022-11-30T10:09:04;5.40;99.90
13589;DHT22;6865;52.552;13.434;2022-11-30T10:14:28;5.60;99.90
13589;DHT22;6865;52.552;13.434;2022-11-30T10:17:20;5.60;99.90
13589;DHT22;6865;52.552;13.434;2022-11-30T10:20:19;5.60;99.90
13589;DHT22;6865;52.552;13.434;2022-11-30T10:23:11;5.60;99.90
13589;DHT22;6865;52.552;13.434;2022-11-30T10:25:48;5.60;99.90
13589;DHT22;6865;52.552;13.434;2022-11-30T10:28:40;5.60;99.90
13589;DHT22;6865;52.552;13.434;2022-11-30T10:31:14;5.60;99.90
13589;DHT22;6865;52.552;13.434;2022-11-30T10:33:50;5.70;99.90
13589;DHT22;6865;52.552;13.434;2022-11-30T10:36:32;5.60;99.90
13589;DHT22;6865;52.552;13.434;2022-11-30T10:39:01;5.70;99.90
13589;DHT22;6865;52.552;13.434;2022-11-30T10:41:34;5.70;99.90
13589;DHT22;6865;52.552;13.434;2022-11-30T10:44:19;5.80;99.90
13589;DHT22;6865;52.552;13.434;2022-11-30T10:46:55;5.70;99.90
13589;DHT22;6865;52.552;13.434;2022-11-30T10:49:24;5.70;99.90
13589;DHT22;6865;52.552;13.434;2022-11-30T10:51:57;5.70;99.90
13589;DHT22;6865;52.552;13.434;2022-11-30T10:54:25;5.90;99.90
13589;DHT22;6865;52.552;13.434;2022-11-30T10:56:51;5.90;99.90
13589;DHT22;6865;52.552;13.434;2022-11-30T10:59:41;6.00;99.90
13589;DHT22;6865;52.552;13.434;2022-11-30T11:02:32;6.00;99.90
13589;DHT22;6865;52.552;13.434;2022-11-30T11:05:27;6.10;99.90
13589;DHT22;6865;52.552;13.434;2022-11-30T11:08:00;6.10;99.90
13589;DHT22;6865;52.552;13.434;2022-11-30T11:10:43;6.10;99.90
13589;DHT22;6865;52.552;13.434;2022-11-30T11:13:16;5.90;99.90
13589;DHT22;6865;52.552;13.434;2022-11-30T11:15:57;5.90;99.90
13589;DHT22;6865;52.552;13.434;2022-11-30T11:18:29;5.90;99.90
13589;DHT22;6865;52.552;13.434;2022-11-30T11:21:06;5.90;99.90
13589;DHT22;6865;52.552;13.434;2022-11-30T11:23:36;6.00;99.90
13589;DHT22;6865;52.552;13.434;2022-11-30T11:26:04;6.00;99.90
13589;DHT22;6865;52.552;13.434;2022-11-30T11:28:33;6.00;99.90
13589;DHT22;6865;52.552;13.434;2022-11-30T11:31:15;6.10;99.90
13589;DHT22;6865;52.552;13.434;2022-11-30T11:33:52;6.10;99.90
13589;DHT22;6865;52.552;13.434;2022-11-30T11:36:28;6.10;99.90
13589;DHT22;6865;52.552;13.434;2022-11-30T11:38:55;6.20;99.90
13589;DHT22;6865;52.552;13.434;2022-11-30T11:41:28;6.10;99.90
13589;DHT22;6865;52.552;13.434;2022-11-30T11:47:02;6.10;99.90
13589;DHT22;6865;52.552;13.434;2022-11-30T11:49:32;6.00;99.90
13589;DHT22;6865;52.552;13.434;2022-11-30T11:54:49;6.10;99.90
13589;DHT22;6865;52.552;13.434;2022-11-30T11:57:19;6.20;99.90
13589;DHT22;6865;52.552;13.434;2022-11-30T12:02:47;6.30;99.90
13589;DHT22;6865;52.552;13.434;2022-11-30T12:05:20;6.20;99.90
13589;DHT22;6865;52.552;13.434;2022-11-30T12:08:13;6.00;99.90
13589;DHT22;6865;52.552;13.434;2022-11-30T12:11:08;5.90;99.90
13589;DHT22;6865;52.552;13.434;2022-11-30T12:13:41;5.90;99.90
13589;DHT22;6865;52.552;13.434;2022-11-30T12:19:16;5.90;99.90
13589;DHT22;6865;52.552;13.434;2022-11-30T12:24:41;5.90;99.90
13589;DHT22;6865;52.552;13.434;2022-11-30T12:27:28;5.90;99.90
13589;DHT22;6865;52.552;13.434;2022-11-30T12:30:11;5.90;99.90
13589;DHT22;6865;52.552;13.434;2022-11-30T12:33:02;5.90;99.90
13589;DHT22;6865;52.552;13.434;2022-11-30T12:35:45;5.80;99.90
13589;DHT22;6865;52.552;13.434;2022-11-30T12:38:29;5.80;99.90
13589;DHT22;6865;52.552;13.434;2022-11-30T12:41:18;5.80;99.90
13589;DHT22;6865;52.552;13.434;2022-11-30T12:47:11;5.60;99.90
13589;DHT22;6865;52.552;13.434;2022-11-30T12:50:07;5.60;99.90
13589;DHT22;6865;52.552;13.434;2022-11-30T12:52:48;5.50;99.90
13589;DHT22;6865;52.552;13.434;2022-11-30T12:55:44;5.40;99.90
13589;DHT22;6865;52.552;13.434;2022-11-30T12:58:28;5.40;99.90
13589;DHT22;6865;52.552;13.434;2022-11-30T13:01:09;5.30;99.90
13589;DHT22;6865;52.552;13.434;2022-11-30T13:03:43;5.40;99.90
13589;DHT22;6865;52.552;13.434;2022-11-30T13:06:17;5.30;99.90
13589;DHT22;6865;52.552;13.434;2022-11-30T13:08:57;5.30;99.90
13589;DHT22;6865;52.552;13.434;2022-11-30T13:11:34;5.40;99.90
13589;DHT22;6865;52.552;13.434;2022-11-30T13:14:05;5.40;99.90
13589;DHT22;6865;52.552;13.434;2022-11-30T13:16:33;5.40;99.90
13589;DHT22;6865;52.552;13.434;2022-11-30T13:19:25;5.40;99.90
13589;DHT22;6865;52.552;13.434;2022-11-30T13:22:01;5.40;99.90
13589;DHT22;6865;52.552;13.434;2022-11-30T13:24:36;5.30;99.90
13589;DHT22;6865;52.552;13.434;2022-11-30T13:27:28;5.30;99.90
13589;DHT22;6865;52.552;13.434;2022-11-30T13:30:12;5.30;99.90
13589;DHT22;6865;52.552;13.434;2022-11-30T13:32:42;5.20;99.90
13589;DHT22;6865;52.552;13.434;2022-11-30T13:38:01;4.90;99.90
13589;DHT22;6865;52.552;13.434;2022-11-30T13:40:57;4.70;99.90
13589;DHT22;6865;52.552;13.434;2022-11-30T13:43:30;4.70;99.90
13589;DHT22;6865;52.552;13.434;2022-11-30T13:46:26;4.50;99.90
13589;DHT22;6865;52.552;13.434;2022-11-30T13:49:19;4.40;99.90
13589;DHT22;6865;52.552;13.434;2022-11-30T13:51:46;4.40;99.90
13589;DHT22;6865;52.552;13.434;2022-11-30T13:54:47;4.30;99.90
13589;DHT22;6865;52.552;13.434;2022-11-30T13:59:55;4.20;99.90
13589;DHT22;6865;52.552;13.434;2022-11-30T14:07:44;3.90;99.90
13589;DHT22;6865;52.552;13.434;2022-11-30T14:13:00;3.60;99.90
13589;DHT22;6865;52.552;13.434;2022-11-30T14:23:56;3.40;99.90
13589;DHT22;6865;52.552;13.434;2022-11-30T14:26:20;3.20;99.90
13589;DHT22;6865;52.552;13.434;2022-11-30T14:28:58;3.00;99.90
13589;DHT22;6865;52.552;13.434;2022-11-30T14:31:29;3.00;99.90
13589;DHT22;6865;52.552;13.434;2022-11-30T14:34:08;2.90;99.90
13589;DHT22;6865;52.552;13.434;2022-11-30T14:36:40;2.90;99.90
13589;DHT22;6865;52.552;13.434;2022-11-30T14:39:24;2.90;99.90
13589;DHT22;6865;52.552;13.434;2022-11-30T14:41:52;2.80;99.90
13589;DHT22;6865;52.552;13.434;2022-11-30T14:44:19;2.80;99.90
13589;DHT22;6865;52.552;13.434;2022-11-30T14:46:45;2.80;99.90
13589;DHT22;6865;52.552;13.434;2022-11-30T14:49:22;2.70;99.90
13589;DHT22;6865;52.552;13.434;2022-11-30T14:52:10;2.50;99.90
13589;DHT22;6865;52.552;13.434;2022-11-30T14:55:05;2.40;99.90
13589;DHT22;6865;52.552;13.434;2022-11-30T15:00:38;2.10;99.90
13589;DHT22;6865;52.552;13.434;2022-11-30T15:03:16;2.10;99.90
13589;DHT22;6865;52.552;13.434;2022-11-30T15:05:43;2.00;99.90
13589;DHT22;6865;52.552;13.434;2022-11-30T15:08:14;2.00;99.90
13589;DHT22;6865;52.552;13.434;2022-11-30T15:10:42;1.70;99.90
13589;DHT22;6865;52.552;13.434;2022-11-30T15:13:12;2.00;99.90
13589;DHT22;6865;52.552;13.434;2022-11-30T15:15:54;2.00;99.90
13589;DHT22;6865;52.552;13.434;2022-11-30T15:18:23;2.10;99.90
13589;DHT22;6865;52.552;13.434;2022-11-30T15:20:55;2.10;99.90
13589;DHT22;6865;52.552;13.434;2022-11-30T15:23:22;2.10;99.90
13589;DHT22;6865;52.552;13.434;2022-11-30T15:26:01;2.10;99.90
13589;DHT22;6865;52.552;13.434;2022-11-30T15:28:38;2.20;99.90
13589;DHT22;6865;52.552;13.434;2022-11-30T15:31:09;2.20;99.90
13589;DHT22;6865;52.552;13.434;2022-11-30T15:33:48;2.20;99.90
13589;DHT22;6865;52.552;13.434;2022-11-30T15:36:16;2.20;99.90
13589;DHT22;6865;52.552;13.434;2022-11-30T15:39:02;2.20;99.90
13589;DHT22;6865;52.552;13.434;2022-11-30T15:41:30;2.20;99.90
13589;DHT22;6865;52.552;13.434;2022-11-30T15:43:58;2.10;99.90
13589;DHT22;6865;52.552;13.434;2022-11-30T15:46:39;2.10;99.90
13589;DHT22;6865;52.552;13.434;2022-11-30T15:49:24;2.10;99.90
13589;DHT22;6865;52.552;13.434;2022-11-30T15:54:53;2.10;99.90
13589;DHT22;6865;52.552;13.434;2022-11-30T15:57:26;2.10;99.90
13589;DHT22;6865;52.552;13.434;2022-11-30T16:00:07;2.10;99.90
13589;DHT22;6865;52.552;13.434;2022-11-30T16:02:44;2.10;99.90
13589;DHT22;6865;52.552;13.434;2022-11-30T16:07:50;2.10;99.90
13589;DHT22;6865;52.552;13.434;2022-11-30T16:10:22;2.00;99.90
13589;DHT22;6865;52.552;13.434;2022-11-30T16:12:50;2.00;99.90
13589;DHT22;6865;52.552;13.434;2022-11-30T16:15:27;1.90;99.90
13589;DHT22;6865;52.552;13.434;2022-11-30T16:18:14;2.00;99.90
13589;DHT22;6865;52.552;13.434;2022-11-30T16:20:42;2.00;99.90
13589;DHT22;6865;52.552;13.434;2022-11-30T16:23:11;2.10;99.90
13589;DHT22;6865;52.552;13.434;2022-11-30T16:25:41;2.10;99.90
13589;DHT22;6865;52.552;13.434;2022-11-30T16:28:10;2.10;99.90
13589;DHT22;6865;52.552;13.434;2022-11-30T16:30:38;2.10;99.90
13589;DHT22;6865;52.552;13.434;2022-11-30T16:33:04;2.20;99.90
13589;DHT22;6865;52.552;13.434;2022-11-30T16:35:36;2.30;99.90
13589;DHT22;6865;52.552;13.434;2022-11-30T16:38:04;2.30;99.90
13589;DHT22;6865;52.552;13.434;2022-11-30T16:40:32;2.20;99.90
13589;DHT22;6865;52.552;13.434;2022-11-30T16:43:04;1.90;99.90
13589;DHT22;6865;52.552;13.434;2022-11-30T16:45:34;3.60;99.90
13589;DHT22;6865;52.552;13.434;2022-11-30T16:48:02;2.30;99.90
13589;DHT22;6865;52.552;13.434;2022-11-30T16:50:28;2.30;99.90
13589;DHT22;6865;52.552;13.434;2022-11-30T16:52:57;2.30;99.90
13589;DHT22;6865;52.552;13.434;2022-11-30T16:55:27;2.30;99.90
13589;DHT22;6865;52.552;13.434;2022-11-30T16:57:54;2.30;99.90
13589;DHT22;6865;52.552;13.434;2022-11-30T17:00:21;2.30;99.90
13589;DHT22;6865;52.552;13.434;2022-11-30T17:02:54;2.30;99.90
13589;DHT22;6865;52.552;13.434;2022-11-30T17:05:22;2.30;99.90
13589;DHT22;6865;52.552;13.434;2022-11-30T17:07:49;2.20;99.90